This is the latest recevied weather packets stored in our database for station/object K6MBY. If no packets are shown the sender has not sent any weather packets the latest 10 day(s).
| Time | Temp. | Humidity | Pressure | Rain* | Wind** | Luminosity | Snow |
|---|---|---|---|---|---|---|---|
| 1777756418 | 18.89° C | 59% | 1020.2 hPa | 0 mm | - | 791 W/m² | - |
| 1777756115 | 18.89° C | 59% | 1020.1 hPa | 0 mm | - | 797 W/m² | - |
| 1777755812 | 18.89° C | 59% | 1020.3 hPa | 0 mm | - | 801 W/m² | - |
| 1777755510 | 18.33° C | 63% | 1020.3 hPa | 0 mm | - | 807 W/m² | - |
| 1777755205 | 18.89° C | 60% | 1020.2 hPa | 0 mm | - | 811 W/m² | - |
| 1777754903 | 18.33° C | 61% | 1020.3 hPa | 0 mm | - | 815 W/m² | - |
| 1777754600 | 18.89° C | 59% | 1020.3 hPa | 0 mm | - | 819 W/m² | - |
| 1777754297 | 17.78° C | 63% | 1020.3 hPa | 0 mm | - | 823 W/m² | - |
| 1777753995 | 18.89° C | 60% | 1020.6 hPa | 0 mm | - | 826 W/m² | - |
| 1777753694 | 18.33° C | 63% | 1020.5 hPa | 0 mm | - | 829 W/m² | - |
| 1777753392 | 18.33° C | 63% | 1020.8 hPa | 0 mm | - | 832 W/m² | - |
| 1777753090 | 17.78° C | 65% | 1020.9 hPa | 0 mm | - | 834 W/m² | - |
| 1777752786 | 17.78° C | 65% | 1020.5 hPa | 0 mm | - | 836 W/m² | - |
| 1777752482 | 17.78° C | 65% | 1020.6 hPa | 0 mm | - | 837 W/m² | - |
| 1777752178 | 17.78° C | 65% | 1020.6 hPa | 0 mm | - | 837 W/m² | - |
| 1777751877 | 17.78° C | 67% | 1020.8 hPa | 0 mm | - | 837 W/m² | - |
| 1777751573 | 17.78° C | 65% | 1020.7 hPa | 0 mm | - | 837 W/m² | - |
| 1777751270 | 17.22° C | 65% | 1021 hPa | 0 mm | - | 836 W/m² | - |
| 1777750967 | 17.78° C | 66% | 1021 hPa | 0 mm | - | 835 W/m² | - |
| 1777750662 | 17.78° C | 65% | 1020.9 hPa | 0 mm | - | 834 W/m² | - |
| 1777750360 | 17.78° C | 65% | 1021 hPa | 0 mm | - | 831 W/m² | - |
| 1777750055 | 17.22° C | 64% | 1020.9 hPa | 0 mm | - | 829 W/m² | - |
| 1777749753 | 17.78° C | 65% | 1021 hPa | 0 mm | - | 825 W/m² | - |
| 1777749449 | 17.22° C | 64% | 1021.2 hPa | 0 mm | - | 823 W/m² | - |
| 1777749147 | 17.78° C | 65% | 1021 hPa | 0 mm | - | 818 W/m² | - |
* Rain latest hour (hover to see other rain measurements)
** Current wind speed in m/s (hover to see current wind gust speed)